Home   Weather   Germany   Wuppertal   Past weeks
Flag for Germany

Past Weather in Wuppertal, North Rhine-Westphalia, Germany — Yesterday and Last 2 Weeks

Currently: 63 °F. Sunny. (Weather station: Duesseldorf, Germany). See more current weather

Past Weather in Wuppertal — Graph

°F

Wuppertal Temperature Yesterday

Maximum temperature yesterday: 90 °F (at 4:20 pm)
Minimum temperature yesterday: 59 °F (at 5:20 am)
Average temperature yesterday: 77 °F

High & Low Weather Summary for the Past Weeks

 TemperatureHumidityPressure
High91 °F (Aug 3, 3:20 pm)100% (Aug 5, 5:20 am)30.36 "Hg (Aug 5, 5:20 am)
Low48 °F (Aug 6, 5:50 am)22% (Aug 11, 4:20 pm)29.89 "Hg (Aug 4, 3:20 am)
Average71 °F58%30.11 "Hg
* Reported Jul 28 5:20 am — Aug 12 5:50 am, Wuppertal. Weather by CustomWeather, © 2022

Note: Actual official high and low records may vary slightly from our data, if they occured in-between our weather recording intervals... More about our weather records

Wuppertal Weather History for the Previous 24 Hours

Scroll right to see more
 ConditionsComfort  
Time TempWeatherWind HumidityBarometerVisibility
5:50 am
Fri, Aug 12
61 °FClear.2 mph72%30.09 "Hg10 mi
5:20 am59 °FClear.1 mph77%30.09 "Hg10 mi
4:50 am61 °FClear.2 mph72%30.09 "Hg10 mi
4:20 am63 °FClear.2 mph68%30.09 "Hg10 mi
3:20 am64 °FClear.1 mph64%30.09 "Hg10 mi
2:50 am64 °FClear.1 mph60%30.09 "Hg10 mi
1:20 am72 °FClear.7 mph44%30.09 "Hg10 mi
12:50 am72 °FClear.7 mph44%30.09 "Hg10 mi
12:20 am73 °FClear.6 mph41%30.09 "Hg10 mi
11:20 pm
Thu, Aug 11
75 °FClear.6 mph39%30.09 "Hg10 mi
10:50 pm75 °FClear.7 mph39%30.09 "Hg10 mi
10:20 pm77 °FClear.7 mph36%30.09 "Hg10 mi
9:50 pm79 °FClear.6 mph34%30.09 "Hg10 mi
9:20 pm81 °FClear.8 mph30%30.09 "Hg10 mi
8:50 pm82 °FSunny.8 mph28%30.07 "Hg10 mi
8:20 pm84 °FSunny.12 mph27%30.07 "Hg10 mi
7:50 pm86 °FSunny.10 mph25%30.07 "Hg10 mi
7:20 pm86 °FSunny.12 mph25%30.07 "Hg10 mi
6:50 pm88 °FSunny.14 mph24%30.09 "Hg10 mi
6:20 pm88 °FPassing clouds.10 mph24%30.09 "HgN/A
5:50 pm90 °FPassing clouds.13 mph22%30.09 "HgN/A
5:20 pm90 °FPassing clouds.10 mph22%30.09 "HgN/A
4:50 pm90 °FPassing clouds.12 mph22%30.09 "HgN/A
4:20 pm90 °FPassing clouds.9 mph22%30.09 "HgN/A
2:50 pm88 °FSunny.6 mph24%30.12 "Hg10 mi
2:20 pm88 °FSunny.2 mph24%30.15 "Hg10 mi
1:50 pm88 °FSunny.8 mph25%30.15 "Hg10 mi
1:20 pm88 °FSunny.5 mph25%30.15 "Hg10 mi
12:50 pm86 °FSunny.6 mph27%30.15 "Hg10 mi
12:20 pm86 °FSunny.5 mph25%30.18 "Hg10 mi
11:50 am84 °FPassing clouds.6 mph29%30.18 "HgN/A
11:20 am84 °FSunny.6 mph29%30.18 "Hg10 mi
10:50 am82 °FPassing clouds.6 mph30%30.18 "HgN/A
10:20 am81 °FSunny.5 mph32%30.18 "Hg10 mi
9:50 am79 °FSunny.1 mph39%30.18 "Hg10 mi
8:50 am72 °FSunny.2 mph50%30.18 "Hg10 mi
8:20 am70 °FSunny.2 mph57%30.18 "Hg10 mi
7:50 am64 °FSunny.2 mph68%30.18 "Hg10 mi
7:20 am63 °FSunny.2 mph68%30.18 "Hg10 mi
Weather by CustomWeather, © 2022

See weather overview